Time;durP1;ratioP1;P1;durP2;ratioP2;P2;SDS_P1;SDS_P2;PMS_P1;PMS_P2;Temp;Humidity;BMP_temperature;BMP_pressure;BME280_temperature;BME280_humidity;BME280_pressure;Samples;Min_cycle;Max_cycle;Signal;HPM_P1;HPM_P2
2022/09/03 00:01:01;;;;;;;5.80;2.65;;;;;;;12.22;56.09;101493.52;1620203;86;21098;-79
2022/09/03 00:03:52;;;;;;;4.47;1.40;;;;;;;12.18;56.19;101497.86;1613045;86;21013;-79
2022/09/03 00:06:45;;;;;;;2.87;1.60;;;;;;;12.14;56.29;101497.90;1621181;86;21383;-79
2022/09/03 00:09:50;;;;;;;3.27;1.42;;;;;;;12.11;56.49;101497.92;1616751;86;21435;-79
2022/09/03 00:12:42;;;;;;;3.35;1.27;;;;;;;12.08;56.48;101493.63;1626707;86;20995;-79
2022/09/03 00:15:28;;;;;;;2.92;1.77;;;;;;;12.07;56.56;101494.50;1608724;86;21013;-79
2022/09/03 00:18:17;;;;;;;;;;;;;;;12.05;56.64;101489.76;1592071;86;21071;-79
2022/09/03 00:21:15;;;;;;;1.82;1.42;;;;;;;12.02;57.36;101488.92;1621972;86;20174;-80
2022/09/03 00:24:03;;;;;;;5.65;1.67;;;;;;;12.00;56.77;101488.08;1614075;86;21625;-80
2022/09/03 00:26:53;;;;;;;3.65;1.50;;;;;;;11.99;56.86;101484.63;1626462;86;21107;-79
2022/09/03 00:29:52;;;;;;;2.62;1.70;;;;;;;11.98;56.91;101481.61;1610334;86;21044;-79
2022/09/03 00:32:56;;;;;;;4.12;1.47;;;;;;;11.97;56.99;101482.91;1608554;86;21077;-79
2022/09/03 00:35:52;;;;;;;2.85;1.27;;;;;;;11.95;57.06;101480.36;1623553;85;21046;-80
2022/09/03 00:38:38;;;;;;;2.40;1.50;;;;;;;11.92;57.16;101485.58;1622792;86;21007;-79
2022/09/03 00:41:37;;;;;;;2.02;1.52;;;;;;;11.92;57.27;101476.50;1632960;87;21066;-79
2022/09/03 00:44:36;;;;;;;4.25;1.40;;;;;;;11.91;57.29;101480.83;1624444;86;21114;-79
2022/09/03 00:47:39;;;;;;;3.25;1.57;;;;;;;11.89;57.42;101479.98;1623956;86;21104;-79
2022/09/03 00:51:05;;;;;;;3.05;1.42;;;;;;;11.88;57.47;101478.26;1545556;88;21105;-79
2022/09/03 00:54:17;;;;;;;2.10;1.57;;;;;;;11.88;57.53;101474.80;1611433;86;21387;-79
2022/09/03 00:57:24;;;;;;;3.95;1.45;;;;;;;11.88;57.56;101478.69;1610856;86;21094;-79
2022/09/03 01:00:17;;;;;;;2.90;1.80;;;;;;;11.86;57.66;101477.41;1598522;88;21079;-79
2022/09/03 01:03:22;;;;;;;3.55;1.62;;;;;;;11.85;57.75;101476.12;1601997;86;20983;-79
2022/09/03 01:06:17;;;;;;;2.85;2.08;;;;;;;11.83;57.81;101470.09;1637391;86;20934;-78
2022/09/03 01:09:29;;;;;;;3.25;1.40;;;;;;;11.80;57.92;101473.56;1601103;86;21044;-78
2022/09/03 01:12:38;;;;;;;2.58;1.70;;;;;;;11.78;57.98;101470.56;1595865;86;21093;-78
2022/09/03 01:15:35;;;;;;;2.17;1.67;;;;;;;11.75;58.08;101467.95;1534655;91;21022;-78
2022/09/03 01:18:32;;;;;;;2.20;1.40;;;;;;;11.74;58.16;101463.21;1628491;86;21008;-78
2022/09/03 01:21:35;;;;;;;3.47;1.40;;;;;;;11.74;58.21;101463.21;1630254;84;21076;-78
2022/09/03 01:25:14;;;;;;;2.77;1.55;;;;;;;11.74;58.26;101459.76;1619725;86;21140;-78
2022/09/03 01:28:08;;;;;;;2.62;1.47;;;;;;;11.70;58.37;101459.36;1629490;86;21046;-79
2022/09/03 01:31:17;;;;;;;3.50;1.35;;;;;;;11.68;58.45;101458.07;1627002;86;21122;-79
2022/09/03 01:34:28;;;;;;;4.40;1.70;;;;;;;11.67;58.50;101453.76;1608589;86;21924;-79
2022/09/03 01:37:22;;;;;;;1.95;1.50;;;;;;;11.64;58.59;101458.96;1629186;86;21084;-79
2022/09/03 01:40:21;;;;;;;2.20;1.27;;;;;;;11.63;58.62;101460.27;1642628;86;21067;-79
2022/09/03 01:43:31;;;;;;;2.65;1.77;;;;;;;11.62;58.67;101462.00;1621640;86;21306;-78
2022/09/03 01:46:23;;;;;;;3.85;1.62;;;;;;;11.61;58.75;101462.44;1643095;86;21110;-79
2022/09/03 01:49:32;;;;;;;1.80;1.35;;;;;;;11.58;58.81;101470.66;1625296;86;21016;-79
2022/09/03 01:52:23;;;;;;;1.82;1.55;;;;;;;11.56;58.87;101469.80;1621840;86;21086;-79
2022/09/03 01:55:55;;;;;;;2.75;1.35;;;;;;;11.53;58.96;101471.98;1610523;86;21100;-80
2022/09/03 01:59:05;;;;;;;4.00;1.95;;;;;;;11.51;59.03;101465.09;1587770;88;21592;-79
2022/09/03 02:02:20;;;;;;;2.08;1.55;;;;;;;11.48;59.13;101466.41;1577340;88;21021;-79
2022/09/03 02:05:10;;;;;;;3.85;1.95;;;;;;;11.48;59.20;101466.41;1612738;86;21083;-79
2022/09/03 02:08:05;;;;;;;2.40;1.70;;;;;;;11.46;59.27;101466.84;1591263;88;21548;-79
2022/09/03 02:11:00;;;;;;;4.92;1.85;;;;;;;11.45;59.31;101468.58;1638218;86;22272;-79
2022/09/03 02:13:53;;;;;;;2.17;1.62;;;;;;;11.43;59.38;101466.89;1587450;88;21163;-79
2022/09/03 02:16:38;;;;;;;4.08;1.85;;;;;;;11.41;59.46;101462.16;1594910;87;21591;-80
2022/09/03 02:19:25;;;;;;;2.08;1.87;;;;;;;11.39;59.56;101467.34;1579226;88;21619;-79
2022/09/03 02:22:12;;;;;;;2.50;2.08;;;;;;;11.37;59.59;101469.09;1585363;88;21065;-79
2022/09/03 02:24:57;;;;;;;2.60;1.90;;;;;;;11.36;59.66;101461.33;1625504;86;20941;-79
2022/09/03 02:27:43;;;;;;;3.55;1.92;;;;;;;11.35;59.75;101459.17;1591268;87;21018;-79
2022/09/03 02:30:28;;;;;;;4.03;1.80;;;;;;;11.35;59.81;101463.05;1610836;86;21947;-79
2022/09/03 02:33:14;;;;;;;2.70;1.75;;;;;;;11.34;59.86;101449.68;1635640;86;21101;-79
2022/09/03 02:36:00;;;;;;;3.75;1.85;;;;;;;11.34;59.94;101454.00;1586392;88;21513;-79
2022/09/03 02:38:46;;;;;;;2.05;1.85;;;;;;;11.30;59.98;101456.18;1621710;86;21135;-79
2022/09/03 02:41:32;;;;;;;3.85;1.47;;;;;;;11.26;60.05;101452.31;1617640;86;21053;-79
2022/09/03 02:44:31;;;;;;;4.58;2.00;;;;;;;11.26;60.11;101452.75;1592093;88;21072;-79
2022/09/03 02:47:19;;;;;;;6.25;2.00;;;;;;;11.24;60.17;101448.88;1601954;87;21023;-79
2022/09/03 02:50:02;;;;;;;3.25;1.77;;;;;;;11.25;60.23;101443.26;1625932;86;21085;-79
2022/09/03 02:52:47;;;;;;;2.75;1.92;;;;;;;11.24;60.31;101450.59;1614198;86;21101;-79
2022/09/03 02:55:32;;;;;;;4.47;1.70;;;;;;;11.22;60.34;101451.90;1621963;86;21007;-79
2022/09/03 02:58:18;;;;;;;2.52;1.62;;;;;;;11.22;60.43;101451.04;1646261;86;21064;-80
2022/09/03 03:01:03;;;;;;;4.95;1.62;;;;;;;11.22;60.47;101446.72;1587605;88;21091;-80
2022/09/03 03:03:49;;;;;;;2.62;1.80;;;;;;;11.20;60.49;101447.16;1575282;88;21139;-79
2022/09/03 03:06:34;;;;;;;2.50;1.90;;;;;;;11.16;60.76;101445.46;1622648;86;21468;-79
2022/09/03 03:09:19;;;;;;;3.33;1.87;;;;;;;11.15;60.69;101441.58;1632877;85;21103;-79
2022/09/03 03:12:04;;;;;;;3.45;1.75;;;;;;;11.14;60.71;101443.31;1588741;88;21049;-79
2022/09/03 03:14:49;;;;;;;4.62;1.85;;;;;;;11.12;60.76;101442.45;1611060;87;21107;-79
2022/09/03 03:17:34;;;;;;;3.40;2.27;;;;;;;11.12;60.84;101446.77;1609449;86;21563;-78
2022/09/03 03:20:19;;;;;;;2.90;1.90;;;;;;;11.13;60.84;101449.36;1627285;86;21418;-79
2022/09/03 03:23:05;;;;;;;2.55;1.72;;;;;;;11.12;60.93;101449.36;1620929;85;21465;-79
2022/09/03 03:25:50;;;;;;;2.95;1.87;;;;;;;11.12;60.97;101452.81;1627494;86;21053;-80
2022/09/03 03:28:36;;;;;;;1.95;1.42;;;;;;;11.10;61.05;101451.95;1624991;87;21611;-80
2022/09/03 03:31:21;;;;;;;2.90;1.98;;;;;;;11.09;61.10;101455.84;1614584;86;21168;-79
2022/09/03 03:34:06;;;;;;;4.72;1.67;;;;;;;11.08;61.15;101454.13;1666794;83;21071;-79
2022/09/03 03:36:51;;;;;;;4.78;1.30;;;;;;;11.05;61.19;101455.44;1625892;86;21063;-79
2022/09/03 03:39:37;;;;;;;2.62;1.72;;;;;;;11.04;61.25;101453.71;1603129;88;21542;-78
2022/09/03 03:42:22;;;;;;;3.30;1.70;;;;;;;11.03;61.28;101454.15;1624227;86;21297;-79
2022/09/03 03:45:12;;;;;;;3.67;1.62;;;;;;;11.03;61.30;101451.99;1605446;88;21539;-79
2022/09/03 03:47:58;;;;;;;2.85;1.95;;;;;;;10.99;61.41;101449.85;1617447;87;20955;-79
2022/09/03 03:50:43;;;;;;;2.50;1.47;;;;;;;10.99;61.46;101453.73;1628610;86;21052;-78
2022/09/03 03:53:29;;;;;;;4.40;1.90;;;;;;;10.98;61.50;101452.02;1620874;87;22232;-79
2022/09/03 03:56:15;;;;;;;2.47;2.00;;;;;;;10.97;61.55;101453.31;1651382;85;21062;-79
2022/09/03 03:59:02;;;;;;;3.87;1.95;;;;;;;10.96;61.60;101452.45;1616913;88;21605;-79
2022/09/03 04:01:49;;;;;;;2.35;1.57;;;;;;;10.93;61.64;101448.58;1570857;91;21600;-78
2022/09/03 04:04:34;;;;;;;1.98;1.45;;;;;;;10.93;61.68;101448.58;1586270;88;21058;-80
2022/09/03 04:07:19;;;;;;;2.72;1.55;;;;;;;10.92;61.77;101448.16;1595675;88;21124;-80
2022/09/03 04:10:06;;;;;;;2.87;1.47;;;;;;;10.91;61.80;101443.45;1591417;89;21109;-80
2022/09/03 04:12:55;;;;;;;5.75;1.95;;;;;;;10.92;61.87;101446.86;1571684;89;21028;-79
2022/09/03 04:15:41;;;;;;;3.70;1.60;;;;;;;10.93;61.92;101452.46;1577536;88;21124;-79
2022/09/03 04:18:26;;;;;;;3.85;1.75;;;;;;;10.94;61.92;101450.30;1598818;88;21080;-79
2022/09/03 04:21:15;;;;;;;3.77;1.82;;;;;;;10.94;61.96;101453.75;1587106;88;21012;-79
2022/09/03 04:24:00;;;;;;;4.60;1.60;;;;;;;10.95;62.02;101452.88;1601666;88;20933;-79
2022/09/03 04:26:46;;;;;;;4.08;1.80;;;;;;;10.95;62.06;101458.49;1624553;86;20944;-79
2022/09/03 04:29:30;;;;;;;3.42;1.77;;;;;;;10.94;62.13;101456.77;1599310;88;20958;-79
2022/09/03 04:35:21;;;;;;;2.20;1.65;;;;;;;10.93;62.27;101464.11;1610824;86;21049;-79
2022/09/03 04:38:06;;;;;;;2.20;1.70;;;;;;;10.94;62.29;101467.13;1625482;86;20958;-79
2022/09/03 04:40:54;;;;;;;2.30;1.50;;;;;;;10.93;62.37;101461.09;1628245;86;20922;-79
2022/09/03 04:43:42;;;;;;;3.40;1.40;;;;;;;10.94;62.41;101465.39;1631076;86;21422;-80
2022/09/03 04:46:32;;;;;;;3.33;1.40;;;;;;;10.98;62.44;101465.38;1636351;84;21343;-79
2022/09/03 04:49:16;;;;;;;2.42;1.47;;;;;;;11.00;62.50;101464.95;1631065;86;20984;-79
2022/09/03 04:52:02;;;;;;;6.03;2.15;;;;;;;11.00;62.55;101463.22;1592757;88;20933;-79
2022/09/03 04:54:47;;;;;;;4.10;1.52;;;;;;;11.00;62.59;101474.86;1667597;84;20917;-79
2022/09/03 04:57:36;;;;;;;2.30;1.35;;;;;;;11.03;62.67;101473.55;1639648;86;20979;-79
2022/09/03 05:00:20;;;;;;;1.75;1.50;;;;;;;11.04;62.68;101469.24;1630181;86;21455;-78
2022/09/03 05:03:05;;;;;;;1.37;1.27;;;;;;;11.06;62.75;101464.92;1626373;86;21003;-79
2022/09/03 05:05:55;;;;;;;2.77;1.80;;;;;;;11.09;62.78;101472.67;1603958;86;21093;-78
2022/09/03 05:08:40;;;;;;;2.02;1.57;;;;;;;11.13;62.84;101474.38;1618144;86;21558;-78
2022/09/03 05:11:27;;;;;;;2.80;1.75;;;;;;;11.18;62.91;101478.67;1679831;84;21071;-78
2022/09/03 05:14:12;;;;;;;4.55;1.47;;;;;;;11.27;62.99;101485.10;1670123;84;21079;-78
2022/09/03 05:16:57;;;;;;;2.37;1.80;;;;;;;11.39;63.04;101486.77;1668377;84;21134;-78
2022/09/03 05:19:42;;;;;;;3.70;1.70;;;;;;;11.52;63.09;101487.53;1636849;86;22175;-79
2022/09/03 05:22:27;;;;;;;2.27;1.90;;;;;;;11.69;63.33;101483.11;1618593;86;21049;-79
2022/09/03 05:25:12;;;;;;;2.42;1.85;;;;;;;11.89;63.19;101481.27;1599714;88;21068;-79
2022/09/03 05:27:59;;;;;;;3.43;1.90;;;;;;;12.09;63.18;101490.16;1614987;86;21562;-79
2022/09/03 05:30:43;;;;;;;2.42;1.80;;;;;;;12.22;63.18;101487.03;1621965;86;21547;-78
2022/09/03 05:33:29;;;;;;;2.80;1.70;;;;;;;12.35;63.19;101484.75;1633822;86;21073;-78
2022/09/03 05:36:18;;;;;;;2.03;1.70;;;;;;;12.53;63.23;101483.69;1594713;86;21654;-78
2022/09/03 05:39:05;;;;;;;4.17;1.55;;;;;;;12.79;63.37;101490.76;1614187;86;21077;-76
2022/09/03 05:41:50;;;;;;;;;;;;;;;13.09;63.32;101483.46;1634870;85;22260;-76
2022/09/03 05:44:35;;;;;;;2.08;1.60;;;;;;;13.32;63.41;101477.56;1622310;85;20515;-77
2022/09/03 05:47:20;;;;;;;2.45;1.80;;;;;;;13.50;63.24;101483.81;1630414;85;21138;-78
2022/09/03 05:50:09;;;;;;;1.80;1.55;;;;;;;13.65;63.16;101480.55;1620610;86;21535;-78
2022/09/03 05:52:54;;;;;;;3.30;1.75;;;;;;;13.92;63.27;101478.83;1627706;83;20980;-79
2022/09/03 05:55:39;;;;;;;4.12;1.85;;;;;;;14.32;63.29;101469.03;1532670;86;9999892;-79
2022/09/03 05:58:24;;;;;;;1.57;1.20;;;;;;;14.62;63.08;101481.48;1639170;86;21067;-79
2022/09/03 06:01:25;;;;;;;2.35;1.47;;;;;;;14.82;63.10;101472.86;1607721;87;21061;-79
2022/09/03 06:04:13;;;;;;;2.98;1.55;;;;;;;15.02;63.00;101472.45;1636138;86;21065;-78
2022/09/03 06:06:58;;;;;;;1.70;1.20;;;;;;;15.19;63.01;101472.08;1606455;88;21028;-79
2022/09/03 06:09:43;;;;;;;2.08;1.50;;;;;;;15.41;62.99;101477.69;1603927;87;21136;-78
2022/09/03 06:12:28;;;;;;;3.30;1.37;;;;;;;15.72;62.98;101473.49;1627434;86;21145;-79
2022/09/03 06:15:13;;;;;;;1.42;1.20;;;;;;;16.18;63.11;101473.20;1614848;86;21109;-78
2022/09/03 06:17:58;;;;;;;4.42;1.15;;;;;;;16.95;63.15;101473.31;1597521;88;21121;-78
2022/09/03 06:20:47;;;;;;;2.30;1.10;;;;;;;17.68;63.00;101465.84;1624602;86;21146;-78
2022/09/03 06:23:34;;;;;;;2.17;1.00;;;;;;;18.44;63.02;101472.44;1622193;86;21085;-79
2022/09/03 06:26:20;;;;;;;1.80;1.42;;;;;;;19.16;62.80;101478.55;1598549;88;21110;-79
2022/09/03 06:29:05;;;;;;;2.00;1.10;;;;;;;19.87;62.70;101482.32;1625165;86;21680;-79
2022/09/03 06:31:50;;;;;;;1.52;1.10;;;;;;;20.55;62.36;101480.73;1592703;88;21078;-80
2022/09/03 06:34:35;;;;;;;3.12;1.17;;;;;;;21.03;62.07;101482.94;1627251;86;21115;-80
2022/09/03 06:37:20;;;;;;;3.35;1.07;;;;;;;21.62;61.94;101485.02;1617137;85;21101;-80
2022/09/03 06:40:11;;;;;;;3.40;1.12;;;;;;;22.24;61.76;101483.70;1616619;86;21071;-80
2022/09/03 06:43:02;;;;;;;2.60;0.95;;;;;;;22.80;61.39;101487.83;1619404;86;21013;-79
2022/09/03 06:45:59;;;;;;;2.65;1.07;;;;;;;23.35;60.98;101486.52;1617234;86;20940;-79
2022/09/03 06:48:46;;;;;;;2.08;0.90;;;;;;;23.76;60.57;101477.59;1617530;85;20986;-80
2022/09/03 06:51:32;;;;;;;;;;;;;;;24.23;60.22;101487.64;1620588;85;21640;-80
2022/09/03 06:54:17;;;;;;;2.33;1.17;;;;;;;24.66;59.33;101490.73;1618506;85;20210;-80
2022/09/03 06:57:03;;;;;;;2.00;1.00;;;;;;;25.02;59.78;101488.09;1614753;85;21164;-81
2022/09/03 06:59:48;;;;;;;2.87;1.20;;;;;;;25.51;59.36;101485.80;1616079;86;21145;-82
2022/09/03 07:02:33;;;;;;;2.67;1.10;;;;;;;26.14;59.02;101485.17;1616342;85;21073;-81
2022/09/03 07:05:18;;;;;;;3.92;1.02;;;;;;;26.67;58.47;101483.31;1618611;85;21106;-82
2022/09/03 07:08:03;;;;;;;4.00;0.90;;;;;;;27.28;58.21;101490.91;1619510;86;21067;-82
2022/09/03 07:10:50;;;;;;;2.47;0.78;;;;;;;27.85;57.46;101487.61;1618138;83;21168;-82
2022/09/03 07:13:43;;;;;;;1.47;1.10;;;;;;;28.10;56.94;101483.92;1623230;86;21570;-82
2022/09/03 07:16:36;;;;;;;1.05;0.78;;;;;;;28.64;56.89;101481.02;1616645;86;21125;-82
2022/09/03 07:19:21;;;;;;;1.57;0.70;;;;;;;29.16;55.96;101484.03;1613776;86;21164;-82
2022/09/03 07:22:09;;;;;;;0.68;0.68;;;;;;;29.29;55.14;101487.41;1625971;86;21723;-82
2022/09/03 07:24:53;;;;;;;1.02;0.90;;;;;;;29.41;54.65;101482.45;1614281;85;21130;-82
2022/09/03 07:27:38;;;;;;;2.12;0.88;;;;;;;29.70;53.20;101480.52;1627285;85;21642;-83
2022/09/03 07:30:25;;;;;;;1.95;0.80;;;;;;;29.69;52.61;101477.48;1635252;86;21097;-82
2022/09/03 07:33:10;;;;;;;4.15;0.85;;;;;;;29.81;51.81;101488.47;1615787;86;21092;-80
2022/09/03 07:35:55;;;;;;;3.85;0.82;;;;;;;29.73;51.25;101493.59;1653916;82;21081;-80
2022/09/03 07:38:45;;;;;;;2.15;0.72;;;;;;;29.68;51.03;101494.45;1672929;84;20984;-80
2022/09/03 07:41:35;;;;;;;2.95;0.80;;;;;;;29.83;49.99;101494.52;1667940;84;21067;-79
2022/09/03 07:44:18;;;;;;;2.42;0.78;;;;;;;29.87;48.47;101495.96;1636993;84;21042;-78
2022/09/03 07:47:03;;;;;;;2.87;0.60;;;;;;;29.47;48.33;101492.61;1618499;86;21054;-78
2022/09/03 07:49:48;;;;;;;2.12;0.70;;;;;;;29.24;48.31;101497.09;1608567;86;21111;-81
2022/09/03 07:52:33;;;;;;;3.20;0.60;;;;;;;29.38;47.66;101496.47;1634252;86;22211;-81
2022/09/03 07:55:19;;;;;;;4.15;0.70;;;;;;;28.88;46.91;101494.25;1595693;88;21139;-81
2022/09/03 07:58:04;;;;;;;0.75;0.60;;;;;;;28.40;46.66;101500.73;1635369;86;21129;-80
2022/09/03 08:00:49;;;;;;;4.28;0.80;;;;;;;29.18;46.11;101499.41;1673616;84;21118;-79
2022/09/03 08:03:37;;;;;;;3.02;1.10;;;;;;;30.27;44.78;101492.97;1675513;84;21546;-83
2022/09/03 08:06:26;;;;;;;2.90;0.90;;;;;;;31.53;44.10;101492.99;1679949;84;21022;-79
2022/09/03 08:09:12;;;;;;;5.12;0.98;;;;;;;32.27;43.01;101492.91;1675743;84;21122;-77
2022/09/03 08:11:57;;;;;;;1.32;0.90;;;;;;;33.19;42.64;101499.20;1667127;84;21059;-76
2022/09/03 08:14:42;;;;;;;1.57;0.87;;;;;;;34.14;42.12;101491.41;1614945;86;21061;-76
2022/09/03 08:17:27;;;;;;;7.28;1.37;;;;;;;34.97;41.64;101493.06;1626730;86;21006;-75
2022/09/03 08:20:12;;;;;;;6.35;1.10;;;;;;;35.54;40.75;101493.23;1626043;86;21113;-77
2022/09/03 08:23:02;;;;;;;1.90;0.88;;;;;;;35.83;40.33;101479.83;1623849;83;21368;-78
2022/09/03 08:25:47;;;;;;;1.17;0.82;;;;;;;35.94;40.19;101491.58;1611282;86;21601;-78
2022/09/03 08:28:33;;;;;;;1.15;1.02;;;;;;;36.54;39.59;101488.46;1622156;85;21092;-78
2022/09/03 08:31:21;;;;;;;;;;;;;;;37.15;38.92;101491.76;1624488;86;21065;-77
2022/09/03 08:34:07;;;;;;;1.62;1.02;;;;;;;37.38;38.72;101489.97;1628994;86;20246;-78
2022/09/03 08:36:53;;;;;;;2.70;1.17;;;;;;;37.44;38.13;101487.87;1623866;86;21118;-78
2022/09/03 08:39:38;;;;;;;3.10;1.30;;;;;;;37.49;37.53;101490.55;1632481;86;21033;-78
2022/09/03 08:42:59;;;;;;;1.22;0.90;;;;;;;36.27;36.79;101479.80;1642483;85;21136;-77
2022/09/03 08:45:45;;;;;;;3.22;0.60;;;;;;;33.92;37.00;101483.84;1636273;86;21442;-78
2022/09/03 08:48:32;;;;;;;2.05;0.70;;;;;;;31.50;37.13;101476.38;1612456;86;21547;-78
2022/09/03 08:51:20;;;;;;;2.45;0.60;;;;;;;29.85;36.87;101473.91;1615019;86;21117;-78
2022/09/03 08:54:08;;;;;;;1.77;0.53;;;;;;;28.51;37.09;101475.47;1667540;84;21588;-77
2022/09/03 08:56:55;;;;;;;3.52;0.72;;;;;;;27.43;36.59;101478.33;1609500;86;21126;-78
2022/09/03 08:59:40;;;;;;;0.53;0.53;;;;;;;26.48;36.14;101472.30;1638864;85;21025;-78
2022/09/03 09:03:00;;;;;;;1.25;0.70;;;;;;;25.59;36.09;101474.72;1623720;86;21122;-78
2022/09/03 09:05:50;;;;;;;4.92;0.80;;;;;;;24.96;35.97;101465.98;1627959;86;21096;-77
2022/09/03 09:09:18;;;;;;;1.32;0.50;;;;;;;24.19;35.60;101466.30;1637064;86;21587;-77
2022/09/03 09:12:46;;;;;;;4.45;0.53;;;;;;;23.58;35.69;101466.76;1640977;86;21144;-77
2022/09/03 09:15:59;;;;;;;1.20;0.50;;;;;;;23.03;35.51;101459.26;1634637;86;21028;-77
2022/09/03 09:19:25;;;;;;;0.80;0.50;;;;;;;22.48;35.53;101452.58;1640918;85;21657;-78
2022/09/03 09:22:43;;;;;;;0.78;0.60;;;;;;;22.20;35.47;101446.59;1637830;86;21078;-75
2022/09/03 09:25:30;;;;;;;1.37;0.50;;;;;;;21.87;35.49;101449.95;1643907;86;21599;-74
2022/09/03 09:28:22;;;;;;;2.80;0.57;;;;;;;21.61;35.55;101439.42;1630969;86;21088;-74
2022/09/03 09:31:14;;;;;;;1.10;0.60;;;;;;;21.44;35.53;101447.27;1613343;87;21101;-74
2022/09/03 09:34:07;;;;;;;3.02;0.80;;;;;;;21.26;35.54;101436.34;1626834;85;21099;-73
2022/09/03 09:36:55;;;;;;;0.80;0.50;;;;;;;21.13;35.50;101451.80;1619006;83;21133;-73
2022/09/03 09:39:43;;;;;;;2.27;0.55;;;;;;;20.94;35.66;101451.80;1592962;89;21152;-73
2022/09/03 09:42:30;;;;;;;5.75;0.80;;;;;;;20.80;35.64;101445.00;1614298;88;21335;-73
2022/09/03 09:45:15;;;;;;;3.27;0.70;;;;;;;20.67;35.68;101449.12;1591499;88;21083;-73
2022/09/03 09:48:04;;;;;;;1.85;0.40;;;;;;;20.55;35.73;101447.04;1610444;88;21116;-73
2022/09/03 09:50:49;;;;;;;1.15;0.50;;;;;;;20.43;35.76;101438.77;1598883;87;20960;-74
2022/09/03 09:53:34;;;;;;;4.25;0.60;;;;;;;20.39;35.88;101437.66;1590297;88;21001;-74
2022/09/03 09:56:24;;;;;;;6.35;0.70;;;;;;;20.37;35.94;101444.72;1588951;88;20956;-73
2022/09/03 09:59:12;;;;;;;0.90;0.42;;;;;;;20.32;35.95;101430.47;1595680;88;20981;-74
2022/09/03 10:02:20;;;;;;;2.47;0.80;;;;;;;20.24;35.94;101435.23;1608502;87;20938;-74
2022/09/03 10:05:16;;;;;;;5.40;0.50;;;;;;;20.25;36.15;101429.52;1607610;86;21418;-73
2022/09/03 10:08:06;;;;;;;1.20;0.40;;;;;;;20.20;36.08;101428.41;1586390;88;21482;-73
2022/09/03 10:10:51;;;;;;;3.58;0.60;;;;;;;20.19;36.10;101433.27;1614697;87;20958;-73
2022/09/03 10:13:41;;;;;;;0.65;0.33;;;;;;;20.22;36.26;101425.25;1604039;86;20938;-73
2022/09/03 10:16:35;;;;;;;1.55;0.40;;;;;;;20.27;36.23;101424.59;1542333;88;5000747;-74
2022/09/03 10:19:29;;;;;;;5.78;0.45;;;;;;;20.24;36.33;101417.31;1587797;88;21555;-73
2022/09/03 10:22:18;;;;;;;2.22;0.40;;;;;;;20.20;36.35;101414.42;1598908;85;21013;-73
2022/09/03 10:25:05;;;;;;;1.40;0.50;;;;;;;20.33;36.50;101415.56;1598513;87;21073;-73
2022/09/03 10:27:53;;;;;;;0.90;0.57;;;;;;;20.42;36.52;101409.48;1616586;87;21131;-73
2022/09/03 10:31:00;;;;;;;1.00;0.57;;;;;;;20.51;36.58;101406.05;1617497;87;21060;-73
2022/09/03 10:34:33;;;;;;;1.17;0.50;;;;;;;20.58;36.69;101415.38;1619484;87;21111;-74
2022/09/03 10:37:43;;;;;;;0.65;0.40;;;;;;;20.63;36.64;101414.24;1649367;84;21099;-73
2022/09/03 10:41:02;;;;;;;0.47;0.30;;;;;;;20.53;36.66;101412.95;1634687;85;21482;-73
2022/09/03 10:43:58;;;;;;;1.15;0.80;;;;;;;20.60;36.79;101413.53;1613913;86;21106;-73
2022/09/03 10:47:06;;;;;;;3.40;0.50;;;;;;;20.64;36.73;101405.44;1619396;85;22181;-74
2022/09/03 10:50:02;;;;;;;1.98;0.30;;;;;;;20.73;36.75;101396.28;1656037;85;21134;-73
2022/09/03 10:53:21;;;;;;;4.80;0.50;;;;;;;20.94;36.80;101389.16;1657765;84;21010;-73
2022/09/03 10:56:41;;;;;;;3.17;0.70;;;;;;;21.07;36.90;101390.28;1672790;84;21475;-73
2022/09/03 11:00:07;;;;;;;1.87;0.60;;;;;;;21.20;36.95;101383.52;1649116;85;21649;-73
2022/09/03 11:03:34;;;;;;;4.80;0.90;;;;;;;21.38;37.11;101381.78;1519114;85;9999933;-73
2022/09/03 11:06:28;;;;;;;7.12;0.93;;;;;;;21.53;37.05;101383.67;1656313;84;21078;-73
2022/09/03 11:09:31;;;;;;;2.52;0.60;;;;;;;21.49;37.05;101384.75;1599689;85;21572;-73
2022/09/03 11:12:30;;;;;;;1.00;0.40;;;;;;;21.44;37.01;101386.28;1658085;85;21078;-73
2022/09/03 11:15:26;;;;;;;5.67;0.57;;;;;;;21.32;36.90;101384.25;1608392;87;21071;-73
2022/09/03 11:18:26;;;;;;;6.53;1.15;;;;;;;21.11;36.95;101383.50;1684685;83;169346;-73
2022/09/03 11:21:15;;;;;;;4.62;0.50;;;;;;;20.99;36.94;101377.50;1658745;84;21404;-73
2022/09/03 11:24:23;;;;;;;3.42;0.50;;;;;;;20.93;37.07;101365.95;1666636;83;21644;-73
2022/09/03 11:27:33;;;;;;;3.85;0.70;;;;;;;21.01;37.13;101370.85;1680308;84;21054;-73
2022/09/03 11:30:29;;;;;;;2.55;0.50;;;;;;;21.06;37.01;101380.23;1666915;84;21075;-73
2022/09/03 11:33:17;;;;;;;2.77;0.40;;;;;;;21.01;37.09;101376.97;1689818;83;21062;-73
2022/09/03 11:36:05;;;;;;;1.25;0.37;;;;;;;21.08;37.12;101364.38;1673727;84;20984;-73
2022/09/03 11:38:50;;;;;;;3.05;0.57;;;;;;;21.14;37.17;101360.14;1672985;84;21606;-73
2022/09/03 11:41:36;;;;;;;1.92;0.53;;;;;;;21.13;37.05;101365.87;1634419;82;5000524;-74
2022/09/03 11:44:22;;;;;;;5.58;0.50;;;;;;;21.08;37.04;101370.48;1687119;82;21121;-73
2022/09/03 11:47:24;;;;;;;1.60;0.60;;;;;;;21.07;37.07;101366.16;1664632;83;21024;-74
2022/09/03 11:50:30;;;;;;;1.12;0.33;;;;;;;21.06;37.07;101373.66;1661561;84;21083;-73
2022/09/03 11:53:24;;;;;;;0.82;0.40;;;;;;;20.98;37.11;101369.22;1679196;84;21094;-73
2022/09/03 11:56:18;;;;;;;1.60;0.90;;;;;;;21.05;37.21;101348.74;1667999;84;21063;-74
2022/09/03 11:59:18;;;;;;;3.67;0.60;;;;;;;21.10;37.13;101352.01;1676199;82;21511;-73
2022/09/03 12:02:32;;;;;;;0.50;0.30;;;;;;;21.10;37.11;101359.44;1668594;82;20933;-73
2022/09/03 12:05:37;;;;;;;4.50;0.40;;;;;;;21.06;37.06;101351.77;1686597;83;20950;-73
2022/09/03 12:08:37;;;;;;;5.03;0.40;;;;;;;21.00;37.08;101356.85;1677013;83;20958;-74
2022/09/03 12:11:45;;;;;;;4.30;0.40;;;;;;;21.03;37.19;101347.50;1666001;83;20916;-74
2022/09/03 12:14:55;;;;;;;5.75;0.40;;;;;;;21.11;37.21;101335.30;1664483;84;20935;-73
2022/09/03 12:18:18;;;;;;;2.60;0.40;;;;;;;21.09;37.16;101339.33;1680016;82;20924;-74
2022/09/03 12:21:07;;;;;;;3.00;0.40;;;;;;;21.01;37.17;101337.52;1670055;83;20957;-74
2022/09/03 12:23:53;;;;;;;3.77;0.40;;;;;;;20.96;37.20;101321.11;1679027;83;20941;-74
2022/09/03 12:26:41;;;;;;;1.05;0.45;;;;;;;20.91;37.21;101316.53;1665648;84;20979;-73
2022/09/03 12:29:29;;;;;;;2.58;0.93;;;;;;;20.93;37.27;101312.52;1667785;83;20943;-73
2022/09/03 12:32:14;;;;;;;3.10;1.05;;;;;;;21.03;37.31;101309.84;1707647;81;20917;-74
2022/09/03 12:35:14;;;;;;;1.80;0.60;;;;;;;21.12;37.34;101314.66;1686143;83;21002;-74
2022/09/03 12:37:59;;;;;;;1.12;0.30;;;;;;;21.16;37.19;101304.37;1661394;83;20920;-74
2022/09/03 12:40:44;;;;;;;3.10;0.35;;;;;;;21.12;37.23;101297.55;1671533;85;20906;-73
2022/09/03 12:43:29;;;;;;;2.50;0.70;;;;;;;21.09;37.25;101304.28;1666860;84;21581;-73
2022/09/03 12:46:14;;;;;;;0.33;0.33;;;;;;;21.01;37.24;101294.59;1687779;83;21520;-73
2022/09/03 12:49:04;;;;;;;11.03;1.60;;;;;;;20.98;37.29;101303.48;1673854;84;21110;-73
2022/09/03 12:51:50;;;;;;;6.12;0.68;;;;;;;20.93;37.33;101294.11;1692552;83;21128;-74
2022/09/03 12:54:43;;;;;;;2.62;0.50;;;;;;;20.87;37.34;101295.26;1667995;83;21068;-74
2022/09/03 12:57:36;;;;;;;1.62;0.50;;;;;;;20.86;37.35;101293.55;1640399;84;21103;-74
2022/09/03 13:00:22;;;;;;;1.22;0.37;;;;;;;20.96;37.37;101279.05;1660204;84;22146;-73
2022/09/03 13:03:24;;;;;;;0.80;0.40;;;;;;;21.09;37.24;101284.09;1669454;82;21066;-73
2022/09/03 13:06:13;;;;;;;2.45;0.40;;;;;;;21.17;37.24;101278.45;1657428;83;21115;-73
2022/09/03 13:09:05;;;;;;;4.65;0.62;;;;;;;21.27;37.24;101274.48;1666447;83;21594;-73
2022/09/03 13:11:54;;;;;;;4.40;0.42;;;;;;;21.40;37.33;101275.53;1680746;83;21021;-73
2022/09/03 13:14:47;;;;;;;9.48;0.40;;;;;;;21.52;37.31;101270.12;1675061;83;21484;-73
2022/09/03 13:18:08;;;;;;;3.55;0.42;;;;;;;21.63;37.39;101262.98;1670546;83;21418;-73
2022/09/03 13:21:07;;;;;;;34.23;1.50;;;;;;;21.71;37.13;101290.63;1657503;84;21542;-73
2022/09/03 13:24:18;;;;;;;5.67;0.85;;;;;;;21.74;37.10;101273.35;1667418;83;21088;-73
2022/09/03 13:27:36;;;;;;;2.12;0.57;;;;;;;21.79;37.18;101271.80;1674846;83;21575;-73